FDC1601 KCHA-KGRR
Flight info
| Callsign | FDC1601 |
|---|---|
| Flight time | 1h 15m |
| Altitude | 35000 |
| Route | MIE |
| Aircraft | B752/M-SDE3FHIM3RW/LB1 |
Departure
| Time | 2026-05-04 18:35 |
|---|---|
| Airport | Chattanooga Metropolitan Airport (Lovell Field) (KCHA) |
Arrival
| Time | 2026-05-04 19:50 |
|---|---|
| Airport | Gerald R. Ford International Airport (KGRR) |
| Time | Latitude | Longitude | Altitude | Speed | Heading |
|---|---|---|---|---|---|
| 2026-05-04 18:17 | 35.02221 | -85.20549 | 692 ft | 0 kts | 107° |
| 2026-05-04 18:26 | 35.02224 | -85.20562 | 692 ft | 2 kts | 107° |
| 2026-05-04 18:26 | 35.02229 | -85.20584 | 692 ft | 3 kts | 107° |
| 2026-05-04 18:26 | 35.02235 | -85.20607 | 692 ft | 3 kts | 107° |
| 2026-05-04 18:27 | 35.02241 | -85.20631 | 692 ft | 3 kts | 107° |
| 2026-05-04 18:27 | 35.02244 | -85.20642 | 692 ft | 0 kts | 107° |
| 2026-05-04 18:28 | 35.02243 | -85.20638 | 692 ft | 2 kts | 100° |
| 2026-05-04 18:28 | 35.02260 | -85.20615 | 692 ft | 5 kts | 18° |
| 2026-05-04 18:28 | 35.02307 | -85.20600 | 692 ft | 8 kts | 14° |
| 2026-05-04 18:28 | 35.02375 | -85.20577 | 692 ft | 12 kts | 15° |
| 2026-05-04 18:29 | 35.02466 | -85.20545 | 692 ft | 15 kts | 16° |
| 2026-05-04 18:29 | 35.02575 | -85.20506 | 692 ft | 17 kts | 17° |
| 2026-05-04 18:29 | 35.02688 | -85.20463 | 692 ft | 17 kts | 17° |
| 2026-05-04 18:29 | 35.02807 | -85.20421 | 692 ft | 18 kts | 16° |
| 2026-05-04 18:30 | 35.03051 | -85.20332 | 692 ft | 18 kts | 17° |
| 2026-05-04 18:30 | 35.03175 | -85.20286 | 692 ft | 18 kts | 16° |
| 2026-05-04 18:30 | 35.03289 | -85.20267 | 692 ft | 15 kts | 330° |
| 2026-05-04 18:31 | 35.03331 | -85.20375 | 692 ft | 14 kts | 287° |
| 2026-05-04 18:31 | 35.03377 | -85.20468 | 692 ft | 13 kts | 342° |
| 2026-05-04 18:31 | 35.03465 | -85.20453 | 692 ft | 13 kts | 17° |
| 2026-05-04 18:31 | 35.03559 | -85.20419 | 692 ft | 14 kts | 17° |
| 2026-05-04 18:32 | 35.03657 | -85.20383 | 692 ft | 15 kts | 17° |
| 2026-05-04 18:32 | 35.03764 | -85.20344 | 692 ft | 16 kts | 17° |
| 2026-05-04 18:32 | 35.03876 | -85.20305 | 692 ft | 17 kts | 15° |
| 2026-05-04 18:32 | 35.03995 | -85.20264 | 692 ft | 18 kts | 17° |
| 2026-05-04 18:33 | 35.04117 | -85.20217 | 692 ft | 19 kts | 17° |
| 2026-05-04 18:33 | 35.04216 | -85.20142 | 692 ft | 15 kts | 83° |
| 2026-05-04 18:33 | 35.04181 | -85.20057 | 692 ft | 10 kts | 173° |
| 2026-05-04 18:33 | 35.04162 | -85.20060 | 692 ft | 0 kts | 194° |
| 2026-05-04 18:34 | 35.04107 | -85.20077 | 692 ft | 29 kts | 195° |
| 2026-05-04 18:34 | 35.03684 | -85.20231 | 692 ft | 99 kts | 197° |
| 2026-05-04 18:34 | 35.02794 | -85.20555 | 732 ft | 160 kts | 195° |
| 2026-05-04 18:34 | 35.01642 | -85.20974 | 1258 ft | 185 kts | 195° |
| 2026-05-04 18:35 | 35.00375 | -85.21436 | 2233 ft | 193 kts | 196° |
| 2026-05-04 18:35 | 34.99112 | -85.21936 | 3632 ft | 189 kts | 202° |
| 2026-05-04 18:35 | 34.98045 | -85.23017 | 4588 ft | 218 kts | 233° |
| 2026-05-04 18:35 | 34.97459 | -85.24886 | 4945 ft | 258 kts | 259° |
| 2026-05-04 18:36 | 34.97641 | -85.27089 | 5013 ft | 262 kts | 285° |
| 2026-05-04 18:36 | 34.98183 | -85.29195 | 5264 ft | 257 kts | 284° |
| 2026-05-04 18:36 | 34.99010 | -85.31092 | 5697 ft | 254 kts | 310° |
| 2026-05-04 18:36 | 35.00501 | -85.32260 | 6336 ft | 264 kts | 338° |
| 2026-05-04 18:37 | 35.02367 | -85.32457 | 6984 ft | 277 kts | 5° |
| 2026-05-04 18:37 | 35.04251 | -85.31842 | 7641 ft | 281 kts | 18° |
| 2026-05-04 18:37 | 35.06083 | -85.30950 | 8275 ft | 286 kts | 21° |
| 2026-05-04 18:37 | 35.07901 | -85.29971 | 8899 ft | 289 kts | 23° |
| 2026-05-04 18:38 | 35.09734 | -85.28959 | 9522 ft | 293 kts | 23° |
| 2026-05-04 18:38 | 35.11613 | -85.27916 | 10153 ft | 296 kts | 23° |
| 2026-05-04 18:38 | 35.13498 | -85.26870 | 10786 ft | 306 kts | 24° |
| 2026-05-04 18:38 | 35.15522 | -85.25754 | 11436 ft | 325 kts | 24° |
| 2026-05-04 18:39 | 35.17567 | -85.24630 | 12050 ft | 317 kts | 23° |
| 2026-05-04 18:39 | 35.19550 | -85.23625 | 12647 ft | 302 kts | 14° |
| 2026-05-04 18:39 | 35.21641 | -85.23369 | 13300 ft | 309 kts | 355° |
| 2026-05-04 18:39 | 35.23827 | -85.23610 | 13950 ft | 320 kts | 349° |
| 2026-05-04 18:40 | 35.25976 | -85.23984 | 14563 ft | 305 kts | 348° |
| 2026-05-04 18:40 | 35.28051 | -85.24312 | 15180 ft | 300 kts | 349° |
| 2026-05-04 18:40 | 35.30206 | -85.24579 | 15827 ft | 318 kts | 351° |
| 2026-05-04 18:40 | 35.32496 | -85.24780 | 16475 ft | 338 kts | 352° |
| 2026-05-04 18:41 | 35.34890 | -85.24920 | 17113 ft | 356 kts | 354° |
| 2026-05-04 18:41 | 35.37426 | -85.25010 | 17753 ft | 373 kts | 354° |
| 2026-05-04 18:41 | 35.40088 | -85.25073 | 18392 ft | 388 kts | 355° |
| 2026-05-04 18:41 | 35.42780 | -85.25120 | 19015 ft | 387 kts | 355° |
| 2026-05-04 18:42 | 35.45525 | -85.25174 | 19652 ft | 393 kts | 354° |
| 2026-05-04 18:42 | 35.48236 | -85.25234 | 20273 ft | 389 kts | 354° |
| 2026-05-04 18:42 | 35.50949 | -85.25294 | 20901 ft | 393 kts | 354° |
| 2026-05-04 18:42 | 35.53689 | -85.25376 | 21527 ft | 398 kts | 353° |
| 2026-05-04 18:43 | 35.56494 | -85.25470 | 22160 ft | 401 kts | 353° |
| 2026-05-04 18:43 | 35.59298 | -85.25568 | 22789 ft | 407 kts | 353° |
| 2026-05-04 18:43 | 35.61177 | -85.25624 | 23203 ft | 405 kts | 353° |
| 2026-05-04 18:43 | 35.64946 | -85.25735 | 24038 ft | 411 kts | 353° |
| 2026-05-04 18:44 | 35.66877 | -85.25794 | 24461 ft | 414 kts | 353° |
| 2026-05-04 18:44 | 35.68827 | -85.25853 | 24884 ft | 418 kts | 353° |
| 2026-05-04 18:44 | 35.72732 | -85.25969 | 25721 ft | 423 kts | 353° |
| 2026-05-04 18:44 | 35.75680 | -85.26051 | 26347 ft | 426 kts | 353° |
| 2026-05-04 18:45 | 35.78644 | -85.26129 | 26973 ft | 428 kts | 353° |
| 2026-05-04 18:45 | 35.81641 | -85.26205 | 27603 ft | 429 kts | 353° |
| 2026-05-04 18:45 | 35.84610 | -85.26276 | 28224 ft | 430 kts | 353° |
| 2026-05-04 18:45 | 35.87595 | -85.26345 | 28846 ft | 430 kts | 353° |
| 2026-05-04 18:46 | 35.90619 | -85.26410 | 29476 ft | 430 kts | 353° |
| 2026-05-04 18:46 | 35.93597 | -85.26486 | 30098 ft | 428 kts | 353° |
| 2026-05-04 18:46 | 35.96546 | -85.26580 | 30716 ft | 426 kts | 352° |
| 2026-05-04 18:46 | 35.99497 | -85.26681 | 31338 ft | 423 kts | 352° |
| 2026-05-04 18:47 | 36.02420 | -85.26780 | 31957 ft | 420 kts | 352° |
| 2026-05-04 18:47 | 36.05373 | -85.26874 | 32588 ft | 416 kts | 352° |
| 2026-05-04 18:47 | 36.08247 | -85.26958 | 33207 ft | 412 kts | 352° |
| 2026-05-04 18:47 | 36.11070 | -85.27032 | 33822 ft | 406 kts | 352° |
| 2026-05-04 18:48 | 36.13886 | -85.27096 | 34442 ft | 400 kts | 352° |
| 2026-05-04 18:48 | 36.16662 | -85.27153 | 34955 ft | 398 kts | 352° |
| 2026-05-04 18:48 | 36.19460 | -85.27235 | 35042 ft | 405 kts | 352° |
| 2026-05-04 18:49 | 36.25214 | -85.27410 | 35048 ft | 424 kts | 352° |
| 2026-05-04 18:49 | 36.31244 | -85.27601 | 35041 ft | 443 kts | 352° |
| 2026-05-04 18:50 | 36.37550 | -85.27790 | 35026 ft | 458 kts | 353° |
| 2026-05-04 18:50 | 36.43935 | -85.27943 | 35002 ft | 458 kts | 353° |
| 2026-05-04 18:51 | 36.50207 | -85.28141 | 34998 ft | 458 kts | 353° |
| 2026-05-04 18:51 | 36.56609 | -85.28321 | 34998 ft | 458 kts | 352° |
| 2026-05-04 18:52 | 36.62962 | -85.28504 | 34987 ft | 458 kts | 353° |
| 2026-05-04 18:52 | 36.69351 | -85.28687 | 34986 ft | 457 kts | 353° |
| 2026-05-04 18:53 | 36.75708 | -85.28872 | 34982 ft | 458 kts | 353° |
| 2026-05-04 18:53 | 36.82053 | -85.29056 | 34974 ft | 457 kts | 353° |
| 2026-05-04 18:54 | 36.88444 | -85.29242 | 34976 ft | 457 kts | 353° |
| 2026-05-04 18:54 | 36.94813 | -85.29425 | 34972 ft | 457 kts | 353° |
| 2026-05-04 18:55 | 37.00832 | -85.29600 | 34969 ft | 457 kts | 353° |
| 2026-05-04 18:55 | 37.10342 | -85.29874 | 34970 ft | 457 kts | 352° |
| 2026-05-04 18:56 | 37.16714 | -85.30059 | 34968 ft | 457 kts | 353° |
| 2026-05-04 18:56 | 37.23078 | -85.30248 | 34969 ft | 457 kts | 352° |
| 2026-05-04 18:57 | 37.29405 | -85.30432 | 34963 ft | 457 kts | 352° |
| 2026-05-04 18:57 | 37.35772 | -85.30618 | 34955 ft | 456 kts | 352° |
| 2026-05-04 18:58 | 37.42153 | -85.30805 | 34959 ft | 456 kts | 352° |
| 2026-05-04 18:58 | 37.48475 | -85.30990 | 34942 ft | 457 kts | 353° |
| 2026-05-04 18:59 | 37.54831 | -85.31181 | 34935 ft | 456 kts | 352° |
| 2026-05-04 18:59 | 37.61203 | -85.31370 | 34922 ft | 456 kts | 352° |
| 2026-05-04 19:00 | 37.67553 | -85.31557 | 34883 ft | 456 kts | 352° |
| 2026-05-04 19:00 | 37.73911 | -85.31744 | 34889 ft | 455 kts | 352° |
| 2026-05-04 19:01 | 37.79838 | -85.31920 | 34894 ft | 456 kts | 353° |
| 2026-05-04 19:01 | 37.86194 | -85.32113 | 34879 ft | 455 kts | 353° |
| 2026-05-04 19:02 | 37.92486 | -85.32325 | 34890 ft | 453 kts | 353° |
| 2026-05-04 19:02 | 37.98799 | -85.32505 | 34889 ft | 453 kts | 353° |
| 2026-05-04 19:03 | 38.05118 | -85.32694 | 34878 ft | 453 kts | 353° |
| 2026-05-04 19:03 | 38.11388 | -85.32884 | 34887 ft | 453 kts | 353° |
| 2026-05-04 19:04 | 38.17731 | -85.33075 | 34884 ft | 453 kts | 353° |
| 2026-05-04 19:04 | 38.24026 | -85.33263 | 34884 ft | 453 kts | 353° |
| 2026-05-04 19:05 | 38.30339 | -85.33440 | 34892 ft | 453 kts | 354° |
| 2026-05-04 19:05 | 38.36629 | -85.33631 | 34886 ft | 453 kts | 353° |
| 2026-05-04 19:06 | 38.42936 | -85.33818 | 34888 ft | 452 kts | 353° |
| 2026-05-04 19:06 | 38.49228 | -85.34007 | 34892 ft | 453 kts | 353° |
| 2026-05-04 19:07 | 38.55531 | -85.34199 | 34884 ft | 453 kts | 353° |
| 2026-05-04 19:07 | 38.61857 | -85.34391 | 34886 ft | 453 kts | 353° |
| 2026-05-04 19:08 | 38.68172 | -85.34583 | 34882 ft | 453 kts | 353° |
| 2026-05-04 19:08 | 38.74436 | -85.34775 | 34865 ft | 453 kts | 353° |
| 2026-05-04 19:09 | 38.80745 | -85.34979 | 34869 ft | 453 kts | 353° |
| 2026-05-04 19:09 | 38.87050 | -85.35170 | 34859 ft | 452 kts | 353° |
| 2026-05-04 19:10 | 38.93360 | -85.35364 | 34845 ft | 452 kts | 353° |
| 2026-05-04 19:10 | 38.99653 | -85.35558 | 34849 ft | 451 kts | 353° |
| 2026-05-04 19:11 | 39.05937 | -85.35750 | 34838 ft | 452 kts | 353° |
| 2026-05-04 19:11 | 39.12193 | -85.35941 | 34834 ft | 451 kts | 353° |
| 2026-05-04 19:12 | 39.21630 | -85.36231 | 34834 ft | 451 kts | 353° |
| 2026-05-04 19:13 | 39.27886 | -85.36424 | 34827 ft | 451 kts | 353° |
| 2026-05-04 19:13 | 39.34183 | -85.36640 | 34831 ft | 453 kts | 353° |
| 2026-05-04 19:14 | 39.40481 | -85.36864 | 34821 ft | 455 kts | 353° |
| 2026-05-04 19:14 | 39.45801 | -85.37014 | 34813 ft | 456 kts | 353° |
| 2026-05-04 19:15 | 39.53176 | -85.37245 | 34809 ft | 457 kts | 353° |
| 2026-05-04 19:15 | 39.59531 | -85.37448 | 34807 ft | 457 kts | 353° |
| 2026-05-04 19:16 | 39.64278 | -85.37596 | 34806 ft | 457 kts | 353° |
| 2026-05-04 19:16 | 39.70627 | -85.37796 | 34803 ft | 457 kts | 353° |
| 2026-05-04 19:17 | 39.76995 | -85.37996 | 34793 ft | 457 kts | 354° |
| 2026-05-04 19:17 | 39.83363 | -85.38200 | 34788 ft | 458 kts | 354° |
| 2026-05-04 19:18 | 39.89783 | -85.38400 | 34781 ft | 460 kts | 354° |
| 2026-05-04 19:18 | 39.96175 | -85.38599 | 34765 ft | 460 kts | 354° |
| 2026-05-04 19:19 | 40.02562 | -85.38800 | 34762 ft | 461 kts | 354° |
| 2026-05-04 19:19 | 40.08979 | -85.39005 | 34761 ft | 461 kts | 354° |
| 2026-05-04 19:20 | 40.15415 | -85.39212 | 34758 ft | 461 kts | 354° |
| 2026-05-04 19:20 | 40.21801 | -85.39415 | 34758 ft | 461 kts | 355° |
| 2026-05-04 19:21 | 40.28255 | -85.39368 | 34759 ft | 463 kts | 358° |
| 2026-05-04 19:21 | 40.34679 | -85.38982 | 34758 ft | 463 kts | 359° |
| 2026-05-04 19:22 | 40.41110 | -85.38533 | 34757 ft | 462 kts | 359° |
| 2026-05-04 19:22 | 40.47514 | -85.38165 | 34753 ft | 460 kts | 359° |
| 2026-05-04 19:23 | 40.53854 | -85.37848 | 34750 ft | 457 kts | 358° |
| 2026-05-04 19:23 | 40.60253 | -85.37504 | 34746 ft | 456 kts | 359° |
| 2026-05-04 19:24 | 40.66154 | -85.37187 | 34727 ft | 456 kts | 359° |
| 2026-05-04 19:24 | 40.72502 | -85.36835 | 34723 ft | 455 kts | 359° |
| 2026-05-04 19:25 | 40.78714 | -85.36495 | 34718 ft | 455 kts | 359° |
| 2026-05-04 19:25 | 40.84014 | -85.36198 | 34705 ft | 454 kts | 359° |
| 2026-05-04 19:26 | 40.90374 | -85.35849 | 34493 ft | 459 kts | 359° |
| 2026-05-04 19:26 | 40.93558 | -85.35665 | 34122 ft | 462 kts | 359° |
| 2026-05-04 19:26 | 40.96774 | -85.35484 | 33717 ft | 460 kts | 359° |
| 2026-05-04 19:26 | 40.99975 | -85.35315 | 33238 ft | 459 kts | 359° |
| 2026-05-04 19:27 | 41.03164 | -85.35133 | 32743 ft | 458 kts | 359° |
| 2026-05-04 19:27 | 41.06290 | -85.34964 | 32253 ft | 457 kts | 359° |
| 2026-05-04 19:27 | 41.09480 | -85.34788 | 31751 ft | 455 kts | 359° |
| 2026-05-04 19:27 | 41.12626 | -85.34613 | 31253 ft | 454 kts | 359° |
| 2026-05-04 19:28 | 41.15780 | -85.34436 | 30755 ft | 454 kts | 359° |
| 2026-05-04 19:28 | 41.18946 | -85.34266 | 30255 ft | 455 kts | 359° |
| 2026-05-04 19:28 | 41.22114 | -85.34079 | 29756 ft | 457 kts | 359° |
| 2026-05-04 19:28 | 41.25276 | -85.33905 | 29260 ft | 457 kts | 359° |
| 2026-05-04 19:29 | 41.28459 | -85.33724 | 28759 ft | 456 kts | 359° |
| 2026-05-04 19:29 | 41.31611 | -85.33549 | 28262 ft | 455 kts | 359° |
| 2026-05-04 19:29 | 41.34784 | -85.33376 | 27760 ft | 453 kts | 359° |
| 2026-05-04 19:29 | 41.37920 | -85.33196 | 27260 ft | 450 kts | 359° |
| 2026-05-04 19:30 | 41.41055 | -85.33030 | 26758 ft | 448 kts | 359° |
| 2026-05-04 19:30 | 41.44158 | -85.32851 | 26257 ft | 445 kts | 359° |
| 2026-05-04 19:30 | 41.47254 | -85.32684 | 25754 ft | 441 kts | 358° |
| 2026-05-04 19:30 | 41.50293 | -85.32516 | 25256 ft | 438 kts | 359° |
| 2026-05-04 19:31 | 41.53342 | -85.32342 | 24753 ft | 435 kts | 358° |
| 2026-05-04 19:31 | 41.56328 | -85.32181 | 24257 ft | 432 kts | 359° |
| 2026-05-04 19:31 | 41.59336 | -85.32012 | 23754 ft | 429 kts | 358° |
| 2026-05-04 19:31 | 41.62297 | -85.31848 | 23255 ft | 426 kts | 359° |
| 2026-05-04 19:32 | 41.65251 | -85.31682 | 22753 ft | 423 kts | 358° |
| 2026-05-04 19:32 | 41.68170 | -85.31521 | 22251 ft | 421 kts | 359° |
| 2026-05-04 19:32 | 41.71111 | -85.31359 | 21745 ft | 419 kts | 358° |
| 2026-05-04 19:32 | 41.74030 | -85.31194 | 21244 ft | 419 kts | 357° |
| 2026-05-04 19:33 | 41.76930 | -85.31041 | 20746 ft | 418 kts | 357° |
| 2026-05-04 19:33 | 41.79827 | -85.30895 | 20247 ft | 418 kts | 357° |
| 2026-05-04 19:33 | 41.82733 | -85.30746 | 19746 ft | 417 kts | 357° |
| 2026-05-04 19:33 | 41.85621 | -85.30595 | 19247 ft | 416 kts | 357° |
| 2026-05-04 19:34 | 41.88498 | -85.30429 | 18749 ft | 414 kts | 357° |
| 2026-05-04 19:34 | 41.91413 | -85.30259 | 18241 ft | 413 kts | 357° |
| 2026-05-04 19:34 | 41.94250 | -85.30094 | 17745 ft | 411 kts | 357° |
| 2026-05-04 19:34 | 41.97089 | -85.29926 | 17246 ft | 409 kts | 357° |
| 2026-05-04 19:35 | 41.99935 | -85.29756 | 16743 ft | 406 kts | 357° |
| 2026-05-04 19:35 | 42.02745 | -85.29584 | 16245 ft | 404 kts | 357° |
| 2026-05-04 19:35 | 42.05588 | -85.29407 | 15736 ft | 402 kts | 357° |
| 2026-05-04 19:35 | 42.08360 | -85.29246 | 15237 ft | 399 kts | 356° |
| 2026-05-04 19:36 | 42.11116 | -85.29108 | 14739 ft | 397 kts | 356° |
| 2026-05-04 19:36 | 42.13901 | -85.28963 | 14233 ft | 395 kts | 356° |
| 2026-05-04 19:36 | 42.16633 | -85.28797 | 13816 ft | 390 kts | 356° |
| 2026-05-04 19:36 | 42.19304 | -85.28635 | 13555 ft | 377 kts | 356° |
| 2026-05-04 19:37 | 42.21852 | -85.28487 | 13298 ft | 362 kts | 356° |
| 2026-05-04 19:37 | 42.24317 | -85.28341 | 13041 ft | 350 kts | 356° |
| 2026-05-04 19:37 | 42.26716 | -85.28194 | 12786 ft | 339 kts | 355° |
| 2026-05-04 19:37 | 42.29034 | -85.28064 | 12528 ft | 328 kts | 356° |
| 2026-05-04 19:38 | 42.31299 | -85.27936 | 12270 ft | 319 kts | 356° |
| 2026-05-04 19:38 | 42.33480 | -85.27825 | 12018 ft | 311 kts | 356° |
| 2026-05-04 19:38 | 42.35612 | -85.27719 | 11764 ft | 304 kts | 356° |
| 2026-05-04 19:38 | 42.37708 | -85.27613 | 11508 ft | 298 kts | 356° |
| 2026-05-04 19:39 | 42.39785 | -85.27505 | 11252 ft | 293 kts | 356° |
| 2026-05-04 19:39 | 42.41809 | -85.27398 | 11009 ft | 290 kts | 355° |
| 2026-05-04 19:39 | 42.43809 | -85.27292 | 10757 ft | 289 kts | 356° |
| 2026-05-04 19:39 | 42.45825 | -85.27183 | 10510 ft | 290 kts | 356° |
| 2026-05-04 19:40 | 42.47849 | -85.27053 | 10259 ft | 291 kts | 356° |
| 2026-05-04 19:40 | 42.49873 | -85.26914 | 10012 ft | 292 kts | 356° |
| 2026-05-04 19:40 | 42.51910 | -85.26778 | 9761 ft | 292 kts | 356° |
| 2026-05-04 19:40 | 42.53951 | -85.26665 | 9509 ft | 291 kts | 356° |
| 2026-05-04 19:41 | 42.55963 | -85.26543 | 9260 ft | 291 kts | 356° |
| 2026-05-04 19:41 | 42.57986 | -85.26414 | 9009 ft | 290 kts | 356° |
| 2026-05-04 19:41 | 42.60016 | -85.26285 | 8757 ft | 289 kts | 356° |
| 2026-05-04 19:41 | 42.62009 | -85.26164 | 8508 ft | 288 kts | 356° |
| 2026-05-04 19:42 | 42.64011 | -85.26049 | 8252 ft | 284 kts | 356° |
| 2026-05-04 19:42 | 42.65954 | -85.25951 | 7953 ft | 280 kts | 356° |
| 2026-05-04 19:42 | 42.67894 | -85.25838 | 7650 ft | 277 kts | 356° |
| 2026-05-04 19:42 | 42.69817 | -85.25721 | 7346 ft | 274 kts | 356° |
| 2026-05-04 19:43 | 42.71715 | -85.25606 | 7044 ft | 272 kts | 356° |
| 2026-05-04 19:43 | 42.73588 | -85.25491 | 6736 ft | 263 kts | 356° |
| 2026-05-04 19:43 | 42.75375 | -85.25399 | 6442 ft | 257 kts | 356° |
| 2026-05-04 19:43 | 42.77144 | -85.25318 | 6154 ft | 253 kts | 355° |
| 2026-05-04 19:44 | 42.78907 | -85.25239 | 5890 ft | 249 kts | 355° |
| 2026-05-04 19:44 | 42.80609 | -85.25160 | 5666 ft | 242 kts | 355° |
| 2026-05-04 19:44 | 42.82290 | -85.25074 | 5407 ft | 238 kts | 355° |
| 2026-05-04 19:44 | 42.83932 | -85.24988 | 5116 ft | 240 kts | 355° |
| 2026-05-04 19:45 | 42.85621 | -85.24885 | 4847 ft | 241 kts | 355° |
| 2026-05-04 19:45 | 42.87282 | -85.24781 | 4604 ft | 241 kts | 355° |
| 2026-05-04 19:45 | 42.88952 | -85.24786 | 4328 ft | 234 kts | 345° |
| 2026-05-04 19:45 | 42.90320 | -85.25687 | 4053 ft | 209 kts | 311° |
| 2026-05-04 19:46 | 42.90966 | -85.27289 | 3792 ft | 186 kts | 276° |
| 2026-05-04 19:46 | 42.90878 | -85.28944 | 3597 ft | 165 kts | 256° |
| 2026-05-04 19:46 | 42.90634 | -85.30442 | 3379 ft | 160 kts | 254° |
| 2026-05-04 19:46 | 42.90474 | -85.31431 | 3248 ft | 160 kts | 255° |
| 2026-05-04 19:47 | 42.90183 | -85.33373 | 3249 ft | 159 kts | 256° |
| 2026-05-04 19:47 | 42.89969 | -85.34867 | 3259 ft | 162 kts | 256° |
| 2026-05-04 19:47 | 42.89770 | -85.36374 | 3230 ft | 161 kts | 257° |
| 2026-05-04 19:47 | 42.89647 | -85.37372 | 3088 ft | 159 kts | 257° |
| 2026-05-04 19:48 | 42.89470 | -85.38839 | 2862 ft | 152 kts | 257° |
| 2026-05-04 19:48 | 42.89294 | -85.40251 | 2581 ft | 150 kts | 257° |
| 2026-05-04 19:48 | 42.89109 | -85.41633 | 2274 ft | 147 kts | 256° |
| 2026-05-04 19:48 | 42.88940 | -85.43021 | 1910 ft | 147 kts | 257° |
| 2026-05-04 19:49 | 42.88782 | -85.44371 | 1655 ft | 141 kts | 256° |
| 2026-05-04 19:49 | 42.88622 | -85.45657 | 1470 ft | 135 kts | 257° |
| 2026-05-04 19:49 | 42.88472 | -85.46933 | 1337 ft | 137 kts | 258° |
| 2026-05-04 19:49 | 42.88331 | -85.48230 | 1165 ft | 141 kts | 258° |
| 2026-05-04 19:50 | 42.88182 | -85.49549 | 975 ft | 137 kts | 258° |
| 2026-05-04 19:50 | 42.88049 | -85.50791 | 819 ft | 121 kts | 257° |
| 2026-05-04 19:50 | 42.87943 | -85.51715 | 804 ft | 70 kts | 261° |
| 2026-05-04 19:50 | 42.87889 | -85.52145 | 804 ft | 33 kts | 261° |
| 2026-05-04 19:51 | 42.87864 | -85.52385 | 804 ft | 20 kts | 261° |
| 2026-05-04 19:51 | 42.87856 | -85.52530 | 804 ft | 12 kts | 270° |
| 2026-05-04 19:51 | 42.87859 | -85.52637 | 804 ft | 12 kts | 274° |
| 2026-05-04 19:51 | 42.87872 | -85.52764 | 804 ft | 14 kts | 282° |
| 2026-05-04 19:52 | 42.87900 | -85.52899 | 804 ft | 15 kts | 300° |
| 2026-05-04 19:52 | 42.87985 | -85.52922 | 804 ft | 14 kts | 50° |
| 2026-05-04 19:52 | 42.88008 | -85.52791 | 804 ft | 16 kts | 82° |
| 2026-05-04 19:52 | 42.88025 | -85.52628 | 804 ft | 19 kts | 82° |
| 2026-05-04 19:53 | 42.88045 | -85.52444 | 804 ft | 21 kts | 81° |
| 2026-05-04 19:53 | 42.88065 | -85.52260 | 804 ft | 18 kts | 82° |
| 2026-05-04 19:53 | 42.88081 | -85.52105 | 804 ft | 15 kts | 82° |
| 2026-05-04 19:53 | 42.88094 | -85.51973 | 804 ft | 13 kts | 82° |
| 2026-05-04 19:54 | 42.88106 | -85.51864 | 804 ft | 12 kts | 81° |
| 2026-05-04 19:54 | 42.88120 | -85.51745 | 804 ft | 14 kts | 81° |
| 2026-05-04 19:54 | 42.88137 | -85.51591 | 804 ft | 18 kts | 82° |
| 2026-05-04 19:54 | 42.88157 | -85.51414 | 804 ft | 20 kts | 81° |
| 2026-05-04 19:55 | 42.88177 | -85.51230 | 804 ft | 19 kts | 81° |
| 2026-05-04 19:55 | 42.88199 | -85.51066 | 804 ft | 16 kts | 81° |
| 2026-05-04 19:55 | 42.88214 | -85.50918 | 804 ft | 15 kts | 83° |
| 2026-05-04 19:55 | 42.88227 | -85.50779 | 804 ft | 14 kts | 82° |
| 2026-05-04 19:56 | 42.88241 | -85.50650 | 804 ft | 13 kts | 68° |
| 2026-05-04 19:56 | 42.88304 | -85.50629 | 804 ft | 9 kts | 325° |
| 2026-05-04 19:56 | 42.88340 | -85.50671 | 804 ft | 5 kts | 333° |
| 2026-05-04 19:56 | 42.88360 | -85.50681 | 804 ft | 3 kts | 343° |
| 2026-05-04 19:57 | 42.88386 | -85.50689 | 804 ft | 4 kts | 347° |
| 2026-05-04 19:57 | 42.88398 | -85.50693 | 804 ft | 0 kts | 348° |